sensor_id;sensor_type;location;lat;lon;timestamp;temperature;humidity
29939;DHT22;16799;50.844;5.304;2022-10-16T00:01:21;14.40;99.90
29939;DHT22;16799;50.844;5.304;2022-10-16T00:03:47;14.50;99.90
29939;DHT22;16799;50.844;5.304;2022-10-16T00:06:15;14.50;99.90
29939;DHT22;16799;50.844;5.304;2022-10-16T00:08:41;14.40;99.90
29939;DHT22;16799;50.844;5.304;2022-10-16T00:11:19;14.40;99.90
29939;DHT22;16799;50.844;5.304;2022-10-16T00:13:46;14.30;99.90
29939;DHT22;16799;50.844;5.304;2022-10-16T00:16:12;14.40;99.90
29939;DHT22;16799;50.844;5.304;2022-10-16T00:18:39;14.40;99.90
29939;DHT22;16799;50.844;5.304;2022-10-16T00:21:17;14.40;99.90
29939;DHT22;16799;50.844;5.304;2022-10-16T00:23:43;14.40;99.90
29939;DHT22;16799;50.844;5.304;2022-10-16T00:26:13;14.40;99.90
29939;DHT22;16799;50.844;5.304;2022-10-16T00:28:40;14.40;99.90
29939;DHT22;16799;50.844;5.304;2022-10-16T00:31:08;14.40;99.90
29939;DHT22;16799;50.844;5.304;2022-10-16T00:33:35;14.40;99.90
29939;DHT22;16799;50.844;5.304;2022-10-16T00:36:03;14.30;99.90
29939;DHT22;16799;50.844;5.304;2022-10-16T00:38:29;14.30;99.90
29939;DHT22;16799;50.844;5.304;2022-10-16T00:40:55;14.30;99.90
29939;DHT22;16799;50.844;5.304;2022-10-16T00:46:04;14.30;99.90
29939;DHT22;16799;50.844;5.304;2022-10-16T00:48:31;14.40;99.90
29939;DHT22;16799;50.844;5.304;2022-10-16T00:50:58;14.30;99.90
29939;DHT22;16799;50.844;5.304;2022-10-16T00:53:25;14.20;99.90
29939;DHT22;16799;50.844;5.304;2022-10-16T00:55:51;14.20;99.90
29939;DHT22;16799;50.844;5.304;2022-10-16T00:58:16;14.20;99.90
29939;DHT22;16799;50.844;5.304;2022-10-16T01:00:42;14.30;99.90
29939;DHT22;16799;50.844;5.304;2022-10-16T01:03:33;14.10;99.90
29939;DHT22;16799;50.844;5.304;2022-10-16T01:11:34;14.10;99.90
29939;DHT22;16799;50.844;5.304;2022-10-16T01:14:19;14.20;99.90
29939;DHT22;16799;50.844;5.304;2022-10-16T01:16:57;14.20;99.90
29939;DHT22;16799;50.844;5.304;2022-10-16T01:22:07;14.20;99.90
29939;DHT22;16799;50.844;5.304;2022-10-16T01:24:44;14.20;99.90
29939;DHT22;16799;50.844;5.304;2022-10-16T01:27:25;14.20;99.90
29939;DHT22;16799;50.844;5.304;2022-10-16T01:30:02;14.30;99.90
29939;DHT22;16799;50.844;5.304;2022-10-16T01:32:53;14.40;99.90
29939;DHT22;16799;50.844;5.304;2022-10-16T01:38:00;14.10;99.90
29939;DHT22;16799;50.844;5.304;2022-10-16T01:40:28;13.90;99.90
29939;DHT22;16799;50.844;5.304;2022-10-16T01:43:00;13.90;99.90
29939;DHT22;16799;50.844;5.304;2022-10-16T01:45:28;14.00;99.90
29939;DHT22;16799;50.844;5.304;2022-10-16T01:47:56;13.90;99.90
29939;DHT22;16799;50.844;5.304;2022-10-16T01:50:24;13.90;99.90
29939;DHT22;16799;50.844;5.304;2022-10-16T01:52:52;14.00;99.90
29939;DHT22;16799;50.844;5.304;2022-10-16T01:55:25;14.00;99.90
29939;DHT22;16799;50.844;5.304;2022-10-16T01:57:55;14.00;99.90
29939;DHT22;16799;50.844;5.304;2022-10-16T02:00:22;14.10;99.90
29939;DHT22;16799;50.844;5.304;2022-10-16T02:02:51;14.10;99.90
29939;DHT22;16799;50.844;5.304;2022-10-16T02:07:58;14.30;99.90
29939;DHT22;16799;50.844;5.304;2022-10-16T02:10:24;14.20;99.90
29939;DHT22;16799;50.844;5.304;2022-10-16T02:12:57;14.10;99.90
29939;DHT22;16799;50.844;5.304;2022-10-16T02:15:24;14.10;99.90
29939;DHT22;16799;50.844;5.304;2022-10-16T02:17:50;14.10;99.90
29939;DHT22;16799;50.844;5.304;2022-10-16T02:20:15;13.90;99.90
29939;DHT22;16799;50.844;5.304;2022-10-16T02:22:47;13.90;99.90
29939;DHT22;16799;50.844;5.304;2022-10-16T02:25:25;13.90;99.90
29939;DHT22;16799;50.844;5.304;2022-10-16T02:31:00;14.10;99.90
29939;DHT22;16799;50.844;5.304;2022-10-16T02:33:28;14.10;99.90
29939;DHT22;16799;50.844;5.304;2022-10-16T02:35:54;14.00;99.90
29939;DHT22;16799;50.844;5.304;2022-10-16T02:38:22;14.10;99.90
29939;DHT22;16799;50.844;5.304;2022-10-16T02:40:48;14.20;99.90
29939;DHT22;16799;50.844;5.304;2022-10-16T02:43:14;14.20;99.90
29939;DHT22;16799;50.844;5.304;2022-10-16T02:45:40;14.00;99.90
29939;DHT22;16799;50.844;5.304;2022-10-16T02:48:06;14.10;99.90
29939;DHT22;16799;50.844;5.304;2022-10-16T02:50:32;14.10;99.90
29939;DHT22;16799;50.844;5.304;2022-10-16T02:52:57;14.20;99.90
29939;DHT22;16799;50.844;5.304;2022-10-16T02:55:23;14.20;99.90
29939;DHT22;16799;50.844;5.304;2022-10-16T02:57:49;14.20;99.90
29939;DHT22;16799;50.844;5.304;2022-10-16T03:00:16;14.10;99.90
29939;DHT22;16799;50.844;5.304;2022-10-16T03:02:42;14.10;99.90
29939;DHT22;16799;50.844;5.304;2022-10-16T03:05:09;14.10;99.90
29939;DHT22;16799;50.844;5.304;2022-10-16T03:07:35;14.10;99.90
29939;DHT22;16799;50.844;5.304;2022-10-16T03:10:00;14.10;99.90
29939;DHT22;16799;50.844;5.304;2022-10-16T03:12:27;14.10;99.90
29939;DHT22;16799;50.844;5.304;2022-10-16T03:14:53;14.10;99.90
29939;DHT22;16799;50.844;5.304;2022-10-16T03:17:18;14.00;99.90
29939;DHT22;16799;50.844;5.304;2022-10-16T03:19:44;13.90;99.90
29939;DHT22;16799;50.844;5.304;2022-10-16T03:22:10;13.80;99.90
29939;DHT22;16799;50.844;5.304;2022-10-16T03:24:35;13.80;99.90
29939;DHT22;16799;50.844;5.304;2022-10-16T03:27:01;13.80;99.90
29939;DHT22;16799;50.844;5.304;2022-10-16T03:29:27;13.80;99.90
29939;DHT22;16799;50.844;5.304;2022-10-16T03:31:55;13.80;99.90
29939;DHT22;16799;50.844;5.304;2022-10-16T03:34:21;13.80;99.90
29939;DHT22;16799;50.844;5.304;2022-10-16T03:36:46;13.60;99.90
29939;DHT22;16799;50.844;5.304;2022-10-16T03:39:12;13.50;99.90
29939;DHT22;16799;50.844;5.304;2022-10-16T03:41:38;13.40;99.90
29939;DHT22;16799;50.844;5.304;2022-10-16T03:44:04;13.60;99.90
29939;DHT22;16799;50.844;5.304;2022-10-16T03:46:29;13.60;99.90
29939;DHT22;16799;50.844;5.304;2022-10-16T03:48:55;13.60;99.90
29939;DHT22;16799;50.844;5.304;2022-10-16T03:51:21;13.60;99.90
29939;DHT22;16799;50.844;5.304;2022-10-16T03:53:46;13.50;99.90
29939;DHT22;16799;50.844;5.304;2022-10-16T03:56:12;13.50;99.90
29939;DHT22;16799;50.844;5.304;2022-10-16T03:58:38;13.40;99.90
29939;DHT22;16799;50.844;5.304;2022-10-16T04:01:03;13.40;99.90
29939;DHT22;16799;50.844;5.304;2022-10-16T04:03:29;13.40;99.90
29939;DHT22;16799;50.844;5.304;2022-10-16T04:05:54;13.50;99.90
29939;DHT22;16799;50.844;5.304;2022-10-16T04:08:20;13.40;99.90
29939;DHT22;16799;50.844;5.304;2022-10-16T04:10:46;13.30;99.90
29939;DHT22;16799;50.844;5.304;2022-10-16T04:13:12;13.40;99.90
29939;DHT22;16799;50.844;5.304;2022-10-16T04:15:38;13.40;99.90
29939;DHT22;16799;50.844;5.304;2022-10-16T04:18:05;13.50;99.90
29939;DHT22;16799;50.844;5.304;2022-10-16T04:20:31;13.50;99.90
29939;DHT22;16799;50.844;5.304;2022-10-16T04:22:56;13.60;99.90
29939;DHT22;16799;50.844;5.304;2022-10-16T04:25:22;13.80;99.90
29939;DHT22;16799;50.844;5.304;2022-10-16T04:27:48;13.90;99.90
29939;DHT22;16799;50.844;5.304;2022-10-16T04:30:13;13.80;99.90
29939;DHT22;16799;50.844;5.304;2022-10-16T04:32:39;13.80;99.90
29939;DHT22;16799;50.844;5.304;2022-10-16T04:35:06;13.70;99.90
29939;DHT22;16799;50.844;5.304;2022-10-16T04:37:32;13.80;99.90
29939;DHT22;16799;50.844;5.304;2022-10-16T04:39:58;13.90;99.90
29939;DHT22;16799;50.844;5.304;2022-10-16T04:42:23;13.70;99.90
29939;DHT22;16799;50.844;5.304;2022-10-16T04:44:49;13.70;99.90
29939;DHT22;16799;50.844;5.304;2022-10-16T04:47:15;13.60;99.90
29939;DHT22;16799;50.844;5.304;2022-10-16T04:49:41;13.50;99.90
29939;DHT22;16799;50.844;5.304;2022-10-16T04:52:06;13.60;99.90
29939;DHT22;16799;50.844;5.304;2022-10-16T04:54:34;13.70;99.90
29939;DHT22;16799;50.844;5.304;2022-10-16T04:56:59;13.80;99.90
29939;DHT22;16799;50.844;5.304;2022-10-16T04:59:25;13.90;99.90
29939;DHT22;16799;50.844;5.304;2022-10-16T05:01:51;13.80;99.90
29939;DHT22;16799;50.844;5.304;2022-10-16T05:04:16;13.80;99.90
29939;DHT22;16799;50.844;5.304;2022-10-16T05:06:42;13.70;99.90
29939;DHT22;16799;50.844;5.304;2022-10-16T05:09:08;13.60;99.90
29939;DHT22;16799;50.844;5.304;2022-10-16T05:11:34;13.70;99.90
29939;DHT22;16799;50.844;5.304;2022-10-16T05:14:00;13.70;99.90
29939;DHT22;16799;50.844;5.304;2022-10-16T05:16:26;13.70;99.90
29939;DHT22;16799;50.844;5.304;2022-10-16T05:18:52;13.80;99.90
29939;DHT22;16799;50.844;5.304;2022-10-16T05:21:19;13.60;99.90
29939;DHT22;16799;50.844;5.304;2022-10-16T05:23:44;13.70;99.90
29939;DHT22;16799;50.844;5.304;2022-10-16T05:26:10;13.70;99.90
29939;DHT22;16799;50.844;5.304;2022-10-16T05:28:36;13.70;99.90
29939;DHT22;16799;50.844;5.304;2022-10-16T05:31:09;13.70;99.90
29939;DHT22;16799;50.844;5.304;2022-10-16T05:33:35;13.80;99.90
29939;DHT22;16799;50.844;5.304;2022-10-16T05:36:05;13.70;99.90
29939;DHT22;16799;50.844;5.304;2022-10-16T05:38:33;13.70;99.90
29939;DHT22;16799;50.844;5.304;2022-10-16T05:40:58;13.70;99.90
29939;DHT22;16799;50.844;5.304;2022-10-16T05:43:24;13.70;99.90
29939;DHT22;16799;50.844;5.304;2022-10-16T05:46:01;13.70;99.90
29939;DHT22;16799;50.844;5.304;2022-10-16T05:48:28;13.70;99.90
29939;DHT22;16799;50.844;5.304;2022-10-16T05:51:09;13.70;99.90
29939;DHT22;16799;50.844;5.304;2022-10-16T05:53:37;13.70;99.90
29939;DHT22;16799;50.844;5.304;2022-10-16T05:56:04;13.70;99.90
29939;DHT22;16799;50.844;5.304;2022-10-16T05:58:31;13.70;99.90
29939;DHT22;16799;50.844;5.304;2022-10-16T06:03:57;13.50;99.90
29939;DHT22;16799;50.844;5.304;2022-10-16T06:06:25;13.40;99.90
29939;DHT22;16799;50.844;5.304;2022-10-16T06:08:52;13.50;99.90
29939;DHT22;16799;50.844;5.304;2022-10-16T06:11:20;13.60;99.90
29939;DHT22;16799;50.844;5.304;2022-10-16T06:13:56;13.60;99.90
29939;DHT22;16799;50.844;5.304;2022-10-16T06:16:23;13.50;99.90
29939;DHT22;16799;50.844;5.304;2022-10-16T06:18:54;13.60;99.90
29939;DHT22;16799;50.844;5.304;2022-10-16T06:21:23;13.60;99.90
29939;DHT22;16799;50.844;5.304;2022-10-16T06:23:52;13.60;99.90
29939;DHT22;16799;50.844;5.304;2022-10-16T06:26:20;13.50;99.90
29939;DHT22;16799;50.844;5.304;2022-10-16T06:28:47;13.40;99.90
29939;DHT22;16799;50.844;5.304;2022-10-16T06:31:13;13.40;99.90
29939;DHT22;16799;50.844;5.304;2022-10-16T06:33:40;13.60;99.90
29939;DHT22;16799;50.844;5.304;2022-10-16T06:36:13;13.50;99.90
29939;DHT22;16799;50.844;5.304;2022-10-16T06:38:40;13.40;99.90
29939;DHT22;16799;50.844;5.304;2022-10-16T06:41:06;13.40;99.90
29939;DHT22;16799;50.844;5.304;2022-10-16T06:43:33;13.40;99.90
29939;DHT22;16799;50.844;5.304;2022-10-16T06:46:01;13.30;99.90
29939;DHT22;16799;50.844;5.304;2022-10-16T06:48:28;13.30;99.90
29939;DHT22;16799;50.844;5.304;2022-10-16T06:53:26;13.40;99.90
29939;DHT22;16799;50.844;5.304;2022-10-16T06:55:52;13.50;99.90
29939;DHT22;16799;50.844;5.304;2022-10-16T06:58:18;13.50;99.90
29939;DHT22;16799;50.844;5.304;2022-10-16T07:00:44;13.40;99.90
29939;DHT22;16799;50.844;5.304;2022-10-16T07:03:09;13.50;99.90
29939;DHT22;16799;50.844;5.304;2022-10-16T07:05:42;13.50;99.90
29939;DHT22;16799;50.844;5.304;2022-10-16T07:08:08;13.70;99.90
29939;DHT22;16799;50.844;5.304;2022-10-16T07:10:34;13.80;99.90
29939;DHT22;16799;50.844;5.304;2022-10-16T07:13:01;13.80;99.90
29939;DHT22;16799;50.844;5.304;2022-10-16T07:15:27;14.00;99.90
29939;DHT22;16799;50.844;5.304;2022-10-16T07:17:53;14.10;99.90
29939;DHT22;16799;50.844;5.304;2022-10-16T07:20:19;14.10;99.90
29939;DHT22;16799;50.844;5.304;2022-10-16T07:22:45;14.10;99.90
29939;DHT22;16799;50.844;5.304;2022-10-16T07:25:10;14.20;99.90
29939;DHT22;16799;50.844;5.304;2022-10-16T07:27:37;14.20;99.90
29939;DHT22;16799;50.844;5.304;2022-10-16T07:30:03;14.30;99.90
29939;DHT22;16799;50.844;5.304;2022-10-16T07:32:29;14.40;99.90
29939;DHT22;16799;50.844;5.304;2022-10-16T07:34:55;14.50;99.90
29939;DHT22;16799;50.844;5.304;2022-10-16T07:37:21;14.60;99.90
29939;DHT22;16799;50.844;5.304;2022-10-16T07:39:47;14.70;99.90
29939;DHT22;16799;50.844;5.304;2022-10-16T07:42:13;14.80;99.90
29939;DHT22;16799;50.844;5.304;2022-10-16T07:44:38;14.90;99.90
29939;DHT22;16799;50.844;5.304;2022-10-16T07:47:05;15.10;99.90
29939;DHT22;16799;50.844;5.304;2022-10-16T07:49:31;15.10;99.90
29939;DHT22;16799;50.844;5.304;2022-10-16T07:51:56;15.20;99.90
29939;DHT22;16799;50.844;5.304;2022-10-16T07:54:22;15.20;99.90
29939;DHT22;16799;50.844;5.304;2022-10-16T07:56:48;15.30;99.90
29939;DHT22;16799;50.844;5.304;2022-10-16T07:59:13;15.50;99.90
29939;DHT22;16799;50.844;5.304;2022-10-16T08:01:39;15.50;99.90
29939;DHT22;16799;50.844;5.304;2022-10-16T08:04:05;15.40;99.90
29939;DHT22;16799;50.844;5.304;2022-10-16T08:06:36;15.40;99.90
29939;DHT22;16799;50.844;5.304;2022-10-16T08:09:03;15.40;99.90
29939;DHT22;16799;50.844;5.304;2022-10-16T08:11:28;15.60;99.90
29939;DHT22;16799;50.844;5.304;2022-10-16T08:13:54;15.70;99.90
29939;DHT22;16799;50.844;5.304;2022-10-16T08:16:20;15.70;99.90
29939;DHT22;16799;50.844;5.304;2022-10-16T08:18:46;15.70;99.90
29939;DHT22;16799;50.844;5.304;2022-10-16T08:21:14;15.70;99.90
29939;DHT22;16799;50.844;5.304;2022-10-16T08:23:40;15.80;99.90
29939;DHT22;16799;50.844;5.304;2022-10-16T08:26:07;15.90;99.90
29939;DHT22;16799;50.844;5.304;2022-10-16T08:28:33;15.90;99.90
29939;DHT22;16799;50.844;5.304;2022-10-16T08:31:14;16.20;99.90
29939;DHT22;16799;50.844;5.304;2022-10-16T08:33:41;16.30;99.90
29939;DHT22;16799;50.844;5.304;2022-10-16T08:36:09;16.40;99.90
29939;DHT22;16799;50.844;5.304;2022-10-16T08:38:35;16.40;99.90
29939;DHT22;16799;50.844;5.304;2022-10-16T08:49:23;16.60;99.90
29939;DHT22;16799;50.844;5.304;2022-10-16T08:51:50;16.80;99.90
29939;DHT22;16799;50.844;5.304;2022-10-16T08:54:36;16.80;99.90
29939;DHT22;16799;50.844;5.304;2022-10-16T08:57:20;16.90;99.90
29939;DHT22;16799;50.844;5.304;2022-10-16T08:59:46;16.90;99.90
29939;DHT22;16799;50.844;5.304;2022-10-16T09:02:37;16.80;99.90
29939;DHT22;16799;50.844;5.304;2022-10-16T09:08:26;16.80;99.90
29939;DHT22;16799;50.844;5.304;2022-10-16T09:11:16;16.90;99.90
29939;DHT22;16799;50.844;5.304;2022-10-16T09:13:58;16.90;99.90
29939;DHT22;16799;50.844;5.304;2022-10-16T09:16:38;17.00;99.90
29939;DHT22;16799;50.844;5.304;2022-10-16T09:19:28;17.10;99.90
29939;DHT22;16799;50.844;5.304;2022-10-16T09:21:57;17.10;99.90
29939;DHT22;16799;50.844;5.304;2022-10-16T09:24:25;17.10;99.90
29939;DHT22;16799;50.844;5.304;2022-10-16T09:26:52;17.20;99.90
29939;DHT22;16799;50.844;5.304;2022-10-16T09:29:19;17.30;99.90
29939;DHT22;16799;50.844;5.304;2022-10-16T09:31:46;17.40;99.90
29939;DHT22;16799;50.844;5.304;2022-10-16T09:36:45;17.40;99.90
29939;DHT22;16799;50.844;5.304;2022-10-16T09:39:12;17.70;99.90
29939;DHT22;16799;50.844;5.304;2022-10-16T09:41:39;17.80;99.90
29939;DHT22;16799;50.844;5.304;2022-10-16T09:44:22;17.80;99.90
29939;DHT22;16799;50.844;5.304;2022-10-16T09:46:49;17.90;99.90
29939;DHT22;16799;50.844;5.304;2022-10-16T09:49:23;18.00;99.90
29939;DHT22;16799;50.844;5.304;2022-10-16T09:51:50;18.40;99.90
29939;DHT22;16799;50.844;5.304;2022-10-16T09:54:18;18.80;99.90
29939;DHT22;16799;50.844;5.304;2022-10-16T09:56:44;19.10;99.90
29939;DHT22;16799;50.844;5.304;2022-10-16T09:59:20;19.30;99.90
29939;DHT22;16799;50.844;5.304;2022-10-16T10:02:01;19.90;99.90
29939;DHT22;16799;50.844;5.304;2022-10-16T10:04:42;20.50;99.90
29939;DHT22;16799;50.844;5.304;2022-10-16T10:07:18;20.80;99.90
29939;DHT22;16799;50.844;5.304;2022-10-16T10:09:45;21.20;99.70
29939;DHT22;16799;50.844;5.304;2022-10-16T10:12:23;22.00;98.60
29939;DHT22;16799;50.844;5.304;2022-10-16T10:15:13;22.50;96.60
29939;DHT22;16799;50.844;5.304;2022-10-16T10:17:53;21.90;96.90
29939;DHT22;16799;50.844;5.304;2022-10-16T10:20:29;21.00;99.60
29939;DHT22;16799;50.844;5.304;2022-10-16T10:22:56;22.10;98.00
29939;DHT22;16799;50.844;5.304;2022-10-16T10:25:50;23.00;96.40
29939;DHT22;16799;50.844;5.304;2022-10-16T10:31:17;23.90;94.00
29939;DHT22;16799;50.844;5.304;2022-10-16T10:38:59;25.60;89.30
29939;DHT22;16799;50.844;5.304;2022-10-16T10:52:34;24.50;91.90
29939;DHT22;16799;50.844;5.304;2022-10-16T11:00:55;24.40;91.00
29939;DHT22;16799;50.844;5.304;2022-10-16T11:06:10;26.10;85.00
29939;DHT22;16799;50.844;5.304;2022-10-16T11:08:50;26.10;84.90
29939;DHT22;16799;50.844;5.304;2022-10-16T11:11:27;25.70;84.20
29939;DHT22;16799;50.844;5.304;2022-10-16T11:16:37;23.50;91.40
29939;DHT22;16799;50.844;5.304;2022-10-16T11:25:05;25.50;86.20
29939;DHT22;16799;50.844;5.304;2022-10-16T11:30:49;23.60;90.90
29939;DHT22;16799;50.844;5.304;2022-10-16T11:41:21;24.50;87.60
29939;DHT22;16799;50.844;5.304;2022-10-16T11:46:38;24.40;89.60
29939;DHT22;16799;50.844;5.304;2022-10-16T11:49:21;23.80;91.00
29939;DHT22;16799;50.844;5.304;2022-10-16T11:57:59;25.10;89.50
29939;DHT22;16799;50.844;5.304;2022-10-16T12:00:34;27.00;81.40
29939;DHT22;16799;50.844;5.304;2022-10-16T12:08:44;25.30;87.30
29939;DHT22;16799;50.844;5.304;2022-10-16T12:11:30;24.50;87.60
29939;DHT22;16799;50.844;5.304;2022-10-16T12:16:38;25.40;87.80
29939;DHT22;16799;50.844;5.304;2022-10-16T12:19:17;26.30;85.50
29939;DHT22;16799;50.844;5.304;2022-10-16T12:21:44;26.40;83.50
29939;DHT22;16799;50.844;5.304;2022-10-16T12:24:41;26.10;82.20
29939;DHT22;16799;50.844;5.304;2022-10-16T12:27:37;25.10;84.30
29939;DHT22;16799;50.844;5.304;2022-10-16T12:30:05;24.20;88.00
29939;DHT22;16799;50.844;5.304;2022-10-16T12:32:34;25.20;87.30
29939;DHT22;16799;50.844;5.304;2022-10-16T12:35:01;26.40;81.90
29939;DHT22;16799;50.844;5.304;2022-10-16T12:37:31;27.30;77.00
29939;DHT22;16799;50.844;5.304;2022-10-16T12:39:59;28.30;74.60
29939;DHT22;16799;50.844;5.304;2022-10-16T12:44:55;27.40;75.70
29939;DHT22;16799;50.844;5.304;2022-10-16T12:47:37;26.70;76.30
29939;DHT22;16799;50.844;5.304;2022-10-16T12:50:03;26.20;81.00
29939;DHT22;16799;50.844;5.304;2022-10-16T12:52:48;25.80;80.50
29939;DHT22;16799;50.844;5.304;2022-10-16T12:55:19;25.90;81.30
29939;DHT22;16799;50.844;5.304;2022-10-16T12:58:14;25.20;84.00
29939;DHT22;16799;50.844;5.304;2022-10-16T13:01:18;25.00;82.40
29939;DHT22;16799;50.844;5.304;2022-10-16T13:09:10;23.70;86.00
29939;DHT22;16799;50.844;5.304;2022-10-16T13:12:21;23.80;87.20
29939;DHT22;16799;50.844;5.304;2022-10-16T13:15:06;24.10;88.30
29939;DHT22;16799;50.844;5.304;2022-10-16T13:18:29;24.40;87.20
29939;DHT22;16799;50.844;5.304;2022-10-16T13:23:53;23.90;89.60
29939;DHT22;16799;50.844;5.304;2022-10-16T13:29:09;24.50;86.00
29939;DHT22;16799;50.844;5.304;2022-10-16T13:31:38;23.90;87.40
29939;DHT22;16799;50.844;5.304;2022-10-16T13:34:05;23.50;87.20
29939;DHT22;16799;50.844;5.304;2022-10-16T13:36:44;23.30;90.30
29939;DHT22;16799;50.844;5.304;2022-10-16T13:41:39;23.80;86.50
29939;DHT22;16799;50.844;5.304;2022-10-16T13:44:18;23.60;87.90
29939;DHT22;16799;50.844;5.304;2022-10-16T13:46:45;23.50;86.10
29939;DHT22;16799;50.844;5.304;2022-10-16T13:49:16;23.30;87.80
29939;DHT22;16799;50.844;5.304;2022-10-16T13:51:57;22.60;90.00
29939;DHT22;16799;50.844;5.304;2022-10-16T13:54:24;22.20;91.60
29939;DHT22;16799;50.844;5.304;2022-10-16T13:56:50;22.10;92.40
29939;DHT22;16799;50.844;5.304;2022-10-16T13:59:27;22.40;92.80
29939;DHT22;16799;50.844;5.304;2022-10-16T14:01:58;22.70;91.90
29939;DHT22;16799;50.844;5.304;2022-10-16T14:04:32;22.90;93.00
29939;DHT22;16799;50.844;5.304;2022-10-16T14:06:58;23.00;91.90
29939;DHT22;16799;50.844;5.304;2022-10-16T14:09:29;23.10;90.40
29939;DHT22;16799;50.844;5.304;2022-10-16T14:12:01;23.10;90.60
29939;DHT22;16799;50.844;5.304;2022-10-16T14:14:35;22.90;90.90
29939;DHT22;16799;50.844;5.304;2022-10-16T14:17:04;22.70;92.30
29939;DHT22;16799;50.844;5.304;2022-10-16T14:19:30;22.50;92.50
29939;DHT22;16799;50.844;5.304;2022-10-16T14:24:45;22.50;93.30
29939;DHT22;16799;50.844;5.304;2022-10-16T14:27:31;22.50;93.60
29939;DHT22;16799;50.844;5.304;2022-10-16T14:30:16;22.60;94.60
29939;DHT22;16799;50.844;5.304;2022-10-16T14:32:53;22.70;94.10
29939;DHT22;16799;50.844;5.304;2022-10-16T14:35:39;22.90;93.60
29939;DHT22;16799;50.844;5.304;2022-10-16T14:38:06;23.10;92.90
29939;DHT22;16799;50.844;5.304;2022-10-16T14:40:35;23.00;93.30
29939;DHT22;16799;50.844;5.304;2022-10-16T14:43:02;23.00;94.10
29939;DHT22;16799;50.844;5.304;2022-10-16T14:45:30;23.10;94.50
29939;DHT22;16799;50.844;5.304;2022-10-16T14:48:02;23.00;93.30
29939;DHT22;16799;50.844;5.304;2022-10-16T14:50:29;22.90;93.80
29939;DHT22;16799;50.844;5.304;2022-10-16T14:52:55;22.90;95.00
29939;DHT22;16799;50.844;5.304;2022-10-16T14:55:21;22.90;94.70
29939;DHT22;16799;50.844;5.304;2022-10-16T14:57:47;22.80;94.80
29939;DHT22;16799;50.844;5.304;2022-10-16T15:00:18;22.80;95.60
29939;DHT22;16799;50.844;5.304;2022-10-16T15:02:44;22.70;97.10
29939;DHT22;16799;50.844;5.304;2022-10-16T15:05:20;22.60;98.00
29939;DHT22;16799;50.844;5.304;2022-10-16T15:07:48;22.60;97.90
29939;DHT22;16799;50.844;5.304;2022-10-16T15:10:18;22.50;98.20
29939;DHT22;16799;50.844;5.304;2022-10-16T15:12:45;22.50;98.60
29939;DHT22;16799;50.844;5.304;2022-10-16T15:17:45;22.30;99.90
29939;DHT22;16799;50.844;5.304;2022-10-16T15:20:11;22.30;99.90
29939;DHT22;16799;50.844;5.304;2022-10-16T15:22:36;22.30;99.90
29939;DHT22;16799;50.844;5.304;2022-10-16T15:25:48;22.10;99.90
29939;DHT22;16799;50.844;5.304;2022-10-16T15:27:54;22.00;99.90
29939;DHT22;16799;50.844;5.304;2022-10-16T15:30:19;21.90;99.90
29939;DHT22;16799;50.844;5.304;2022-10-16T15:32:45;22.00;99.90
29939;DHT22;16799;50.844;5.304;2022-10-16T15:35:10;21.90;99.90
29939;DHT22;16799;50.844;5.304;2022-10-16T15:37:36;21.90;99.90
29939;DHT22;16799;50.844;5.304;2022-10-16T15:40:02;21.90;99.90
29939;DHT22;16799;50.844;5.304;2022-10-16T15:42:28;21.80;99.90
29939;DHT22;16799;50.844;5.304;2022-10-16T15:44:53;21.80;99.90
29939;DHT22;16799;50.844;5.304;2022-10-16T15:47:19;21.70;99.90
29939;DHT22;16799;50.844;5.304;2022-10-16T15:49:45;21.60;99.90
29939;DHT22;16799;50.844;5.304;2022-10-16T15:52:11;21.50;99.90
29939;DHT22;16799;50.844;5.304;2022-10-16T15:54:37;21.40;99.90
29939;DHT22;16799;50.844;5.304;2022-10-16T15:57:02;21.40;99.90
29939;DHT22;16799;50.844;5.304;2022-10-16T15:59:28;21.30;99.90
29939;DHT22;16799;50.844;5.304;2022-10-16T16:01:54;21.10;99.90
29939;DHT22;16799;50.844;5.304;2022-10-16T16:04:19;21.00;99.90
29939;DHT22;16799;50.844;5.304;2022-10-16T16:06:45;20.90;99.90
29939;DHT22;16799;50.844;5.304;2022-10-16T16:09:12;21.00;99.90
29939;DHT22;16799;50.844;5.304;2022-10-16T16:11:37;20.80;99.90
29939;DHT22;16799;50.844;5.304;2022-10-16T16:14:07;20.80;99.90
29939;DHT22;16799;50.844;5.304;2022-10-16T16:16:35;20.70;99.90
29939;DHT22;16799;50.844;5.304;2022-10-16T16:19:04;20.70;99.90
29939;DHT22;16799;50.844;5.304;2022-10-16T16:21:31;20.60;99.90
29939;DHT22;16799;50.844;5.304;2022-10-16T16:23:57;20.50;99.90
29939;DHT22;16799;50.844;5.304;2022-10-16T16:26:24;20.40;99.90
29939;DHT22;16799;50.844;5.304;2022-10-16T16:28:56;20.40;99.90
29939;DHT22;16799;50.844;5.304;2022-10-16T16:31:27;20.30;99.90
29939;DHT22;16799;50.844;5.304;2022-10-16T16:33:53;20.20;99.90
29939;DHT22;16799;50.844;5.304;2022-10-16T16:36:19;20.10;99.90
29939;DHT22;16799;50.844;5.304;2022-10-16T16:38:45;20.10;99.90
29939;DHT22;16799;50.844;5.304;2022-10-16T16:41:16;20.10;99.90
29939;DHT22;16799;50.844;5.304;2022-10-16T16:43:42;20.00;99.90
29939;DHT22;16799;50.844;5.304;2022-10-16T16:46:08;19.90;99.90
29939;DHT22;16799;50.844;5.304;2022-10-16T16:48:34;19.90;99.90
29939;DHT22;16799;50.844;5.304;2022-10-16T16:51:07;19.80;99.90
29939;DHT22;16799;50.844;5.304;2022-10-16T16:53:35;19.80;99.90
29939;DHT22;16799;50.844;5.304;2022-10-16T16:56:05;19.70;99.90
29939;DHT22;16799;50.844;5.304;2022-10-16T16:58:31;19.60;99.90
29939;DHT22;16799;50.844;5.304;2022-10-16T17:00:57;19.50;99.90
29939;DHT22;16799;50.844;5.304;2022-10-16T17:03:31;19.50;99.90
29939;DHT22;16799;50.844;5.304;2022-10-16T17:05:59;19.50;99.90
29939;DHT22;16799;50.844;5.304;2022-10-16T17:08:25;19.40;99.90
29939;DHT22;16799;50.844;5.304;2022-10-16T17:10:51;19.50;99.90
29939;DHT22;16799;50.844;5.304;2022-10-16T17:13:21;19.30;99.90
29939;DHT22;16799;50.844;5.304;2022-10-16T17:15:49;19.20;99.90
29939;DHT22;16799;50.844;5.304;2022-10-16T17:18:15;19.20;99.90
29939;DHT22;16799;50.844;5.304;2022-10-16T17:20:41;19.20;99.90
29939;DHT22;16799;50.844;5.304;2022-10-16T17:23:07;19.10;99.90
29939;DHT22;16799;50.844;5.304;2022-10-16T17:25:35;19.00;99.90
29939;DHT22;16799;50.844;5.304;2022-10-16T17:28:01;19.00;99.90
29939;DHT22;16799;50.844;5.304;2022-10-16T17:30:27;19.10;99.90
29939;DHT22;16799;50.844;5.304;2022-10-16T17:32:53;19.10;99.90
29939;DHT22;16799;50.844;5.304;2022-10-16T17:35:18;18.70;99.90
29939;DHT22;16799;50.844;5.304;2022-10-16T17:37:44;18.30;99.90
29939;DHT22;16799;50.844;5.304;2022-10-16T17:40:10;17.90;99.90
29939;DHT22;16799;50.844;5.304;2022-10-16T17:42:36;17.70;99.90
29939;DHT22;16799;50.844;5.304;2022-10-16T17:45:02;17.80;99.90
29939;DHT22;16799;50.844;5.304;2022-10-16T17:47:28;17.90;99.90
29939;DHT22;16799;50.844;5.304;2022-10-16T17:49:54;18.00;99.90